sensor_id;sensor_type;location;lat;lon;timestamp;temperature;humidity
26641;DHT22;14269;47.358;0.724;2023-07-29T00:02:38;21.0;73.0
26641;DHT22;14269;47.358;0.724;2023-07-29T00:05:10;21.0;73.0
26641;DHT22;14269;47.358;0.724;2023-07-29T00:07:42;21.0;73.0
26641;DHT22;14269;47.358;0.724;2023-07-29T00:10:13;21.0;72.0
26641;DHT22;14269;47.358;0.724;2023-07-29T00:12:45;21.0;73.0
26641;DHT22;14269;47.358;0.724;2023-07-29T00:15:17;21.0;72.0
26641;DHT22;14269;47.358;0.724;2023-07-29T00:17:48;21.0;72.0
26641;DHT22;14269;47.358;0.724;2023-07-29T00:20:20;21.0;73.0
26641;DHT22;14269;47.358;0.724;2023-07-29T00:22:54;21.0;73.0
26641;DHT22;14269;47.358;0.724;2023-07-29T00:25:33;21.0;73.0
26641;DHT22;14269;47.358;0.724;2023-07-29T00:28:05;21.0;73.0
26641;DHT22;14269;47.358;0.724;2023-07-29T00:30:36;21.0;73.0
26641;DHT22;14269;47.358;0.724;2023-07-29T00:33:08;21.0;73.0
26641;DHT22;14269;47.358;0.724;2023-07-29T00:35:40;21.0;73.0
26641;DHT22;14269;47.358;0.724;2023-07-29T00:38:11;21.0;73.0
26641;DHT22;14269;47.358;0.724;2023-07-29T00:40:43;21.0;74.0
26641;DHT22;14269;47.358;0.724;2023-07-29T00:43:15;21.0;74.0
26641;DHT22;14269;47.358;0.724;2023-07-29T00:45:47;21.0;74.0
26641;DHT22;14269;47.358;0.724;2023-07-29T00:48:18;21.0;74.0
26641;DHT22;14269;47.358;0.724;2023-07-29T00:50:50;21.0;74.0
26641;DHT22;14269;47.358;0.724;2023-07-29T00:53:22;21.0;73.0
26641;DHT22;14269;47.358;0.724;2023-07-29T00:55:53;21.0;74.0
26641;DHT22;14269;47.358;0.724;2023-07-29T00:58:25;21.0;73.0
26641;DHT22;14269;47.358;0.724;2023-07-29T01:00:57;21.0;73.0
26641;DHT22;14269;47.358;0.724;2023-07-29T01:03:28;21.0;72.0
26641;DHT22;14269;47.358;0.724;2023-07-29T01:06:11;21.0;72.0
26641;DHT22;14269;47.358;0.724;2023-07-29T01:08:55;21.0;72.0
26641;DHT22;14269;47.358;0.724;2023-07-29T01:11:41;21.0;72.0
26641;DHT22;14269;47.358;0.724;2023-07-29T01:14:21;21.0;73.0
26641;DHT22;14269;47.358;0.724;2023-07-29T01:17:09;21.0;74.0
26641;DHT22;14269;47.358;0.724;2023-07-29T01:20:00;21.0;75.0
26641;DHT22;14269;47.358;0.724;2023-07-29T01:22:41;21.0;74.0
26641;DHT22;14269;47.358;0.724;2023-07-29T01:25:22;21.0;74.0
26641;DHT22;14269;47.358;0.724;2023-07-29T01:27:55;21.0;74.0
26641;DHT22;14269;47.358;0.724;2023-07-29T01:30:39;20.0;75.0
26641;DHT22;14269;47.358;0.724;2023-07-29T01:33:23;20.0;76.0
26641;DHT22;14269;47.358;0.724;2023-07-29T01:36:03;20.0;76.0
26641;DHT22;14269;47.358;0.724;2023-07-29T01:38:43;20.0;77.0
26641;DHT22;14269;47.358;0.724;2023-07-29T01:41:24;20.0;76.0
26641;DHT22;14269;47.358;0.724;2023-07-29T01:44:06;20.0;76.0
26641;DHT22;14269;47.358;0.724;2023-07-29T01:46:46;20.0;75.0
26641;DHT22;14269;47.358;0.724;2023-07-29T01:49:18;20.0;75.0
26641;DHT22;14269;47.358;0.724;2023-07-29T01:51:49;20.0;75.0
26641;DHT22;14269;47.358;0.724;2023-07-29T01:54:21;20.0;74.0
26641;DHT22;14269;47.358;0.724;2023-07-29T01:56:53;20.0;74.0
26641;DHT22;14269;47.358;0.724;2023-07-29T01:59:24;20.0;74.0
26641;DHT22;14269;47.358;0.724;2023-07-29T02:01:56;20.0;74.0
26641;DHT22;14269;47.358;0.724;2023-07-29T02:04:28;20.0;74.0
26641;DHT22;14269;47.358;0.724;2023-07-29T02:06:59;20.0;74.0
26641;DHT22;14269;47.358;0.724;2023-07-29T02:09:31;20.0;74.0
26641;DHT22;14269;47.358;0.724;2023-07-29T02:12:03;20.0;75.0
26641;DHT22;14269;47.358;0.724;2023-07-29T02:14:34;20.0;74.0
26641;DHT22;14269;47.358;0.724;2023-07-29T02:17:06;20.0;74.0
26641;DHT22;14269;47.358;0.724;2023-07-29T02:19:37;20.0;74.0
26641;DHT22;14269;47.358;0.724;2023-07-29T02:22:12;20.0;74.0
26641;DHT22;14269;47.358;0.724;2023-07-29T02:24:51;20.0;73.0
26641;DHT22;14269;47.358;0.724;2023-07-29T02:27:25;20.0;73.0
26641;DHT22;14269;47.358;0.724;2023-07-29T02:30:06;20.0;74.0
26641;DHT22;14269;47.358;0.724;2023-07-29T02:32:46;21.0;73.0
26641;DHT22;14269;47.358;0.724;2023-07-29T02:35:18;21.0;73.0
26641;DHT22;14269;47.358;0.724;2023-07-29T02:37:49;21.0;73.0
26641;DHT22;14269;47.358;0.724;2023-07-29T02:40:22;21.0;73.0
26641;DHT22;14269;47.358;0.724;2023-07-29T02:43:03;20.0;73.0
26641;DHT22;14269;47.358;0.724;2023-07-29T02:45:34;20.0;74.0
26641;DHT22;14269;47.358;0.724;2023-07-29T02:48:06;20.0;74.0
26641;DHT22;14269;47.358;0.724;2023-07-29T02:50:38;20.0;74.0
26641;DHT22;14269;47.358;0.724;2023-07-29T02:53:09;20.0;74.0
26641;DHT22;14269;47.358;0.724;2023-07-29T02:55:41;20.0;74.0
26641;DHT22;14269;47.358;0.724;2023-07-29T02:58:13;20.0;73.0
26641;DHT22;14269;47.358;0.724;2023-07-29T03:00:44;20.0;73.0
26641;DHT22;14269;47.358;0.724;2023-07-29T03:03:16;20.0;74.0
26641;DHT22;14269;47.358;0.724;2023-07-29T03:05:48;20.0;73.0
26641;DHT22;14269;47.358;0.724;2023-07-29T03:08:19;20.0;74.0
26641;DHT22;14269;47.358;0.724;2023-07-29T03:10:51;20.0;74.0
26641;DHT22;14269;47.358;0.724;2023-07-29T03:13:23;20.0;74.0
26641;DHT22;14269;47.358;0.724;2023-07-29T03:15:54;20.0;74.0
26641;DHT22;14269;47.358;0.724;2023-07-29T03:18:36;20.0;74.0
26641;DHT22;14269;47.358;0.724;2023-07-29T03:21:08;20.0;74.0
26641;DHT22;14269;47.358;0.724;2023-07-29T03:23:49;20.0;74.0
26641;DHT22;14269;47.358;0.724;2023-07-29T03:26:21;20.0;74.0
26641;DHT22;14269;47.358;0.724;2023-07-29T03:28:53;20.0;75.0
26641;DHT22;14269;47.358;0.724;2023-07-29T03:31:24;20.0;74.0
26641;DHT22;14269;47.358;0.724;2023-07-29T03:33:56;20.0;74.0
26641;DHT22;14269;47.358;0.724;2023-07-29T03:36:28;20.0;74.0
26641;DHT22;14269;47.358;0.724;2023-07-29T03:39:00;20.0;74.0
26641;DHT22;14269;47.358;0.724;2023-07-29T03:41:41;20.0;74.0
26641;DHT22;14269;47.358;0.724;2023-07-29T03:44:13;20.0;74.0
26641;DHT22;14269;47.358;0.724;2023-07-29T03:46:45;20.0;74.0
26641;DHT22;14269;47.358;0.724;2023-07-29T03:49:16;20.0;74.0
26641;DHT22;14269;47.358;0.724;2023-07-29T03:51:48;20.0;75.0
26641;DHT22;14269;47.358;0.724;2023-07-29T03:54:19;20.0;75.0
26641;DHT22;14269;47.358;0.724;2023-07-29T03:56:51;20.0;74.0
26641;DHT22;14269;47.358;0.724;2023-07-29T03:59:23;20.0;74.0
26641;DHT22;14269;47.358;0.724;2023-07-29T04:01:54;20.0;74.0
26641;DHT22;14269;47.358;0.724;2023-07-29T04:04:26;20.0;74.0
26641;DHT22;14269;47.358;0.724;2023-07-29T04:06:57;20.0;74.0
26641;DHT22;14269;47.358;0.724;2023-07-29T04:09:29;20.0;75.0
26641;DHT22;14269;47.358;0.724;2023-07-29T04:12:01;20.0;75.0
26641;DHT22;14269;47.358;0.724;2023-07-29T04:14:32;20.0;75.0
26641;DHT22;14269;47.358;0.724;2023-07-29T04:17:05;20.0;75.0
26641;DHT22;14269;47.358;0.724;2023-07-29T04:19:36;20.0;75.0
26641;DHT22;14269;47.358;0.724;2023-07-29T04:22:07;20.0;76.0
26641;DHT22;14269;47.358;0.724;2023-07-29T04:24:39;20.0;76.0
26641;DHT22;14269;47.358;0.724;2023-07-29T04:27:11;20.0;76.0
26641;DHT22;14269;47.358;0.724;2023-07-29T04:29:42;20.0;75.0
26641;DHT22;14269;47.358;0.724;2023-07-29T04:32:14;20.0;76.0
26641;DHT22;14269;47.358;0.724;2023-07-29T04:34:46;20.0;76.0
26641;DHT22;14269;47.358;0.724;2023-07-29T04:37:17;20.0;76.0
26641;DHT22;14269;47.358;0.724;2023-07-29T04:39:49;20.0;76.0
26641;DHT22;14269;47.358;0.724;2023-07-29T04:42:20;20.0;77.0
26641;DHT22;14269;47.358;0.724;2023-07-29T04:44:52;20.0;77.0
26641;DHT22;14269;47.358;0.724;2023-07-29T04:47:24;20.0;76.0
26641;DHT22;14269;47.358;0.724;2023-07-29T04:49:55;20.0;76.0
26641;DHT22;14269;47.358;0.724;2023-07-29T04:52:27;21.0;79.0
26641;DHT22;14269;47.358;0.724;2023-07-29T04:54:59;21.0;76.0
26641;DHT22;14269;47.358;0.724;2023-07-29T04:57:30;21.0;75.0
26641;DHT22;14269;47.358;0.724;2023-07-29T05:00:03;21.0;74.0
26641;DHT22;14269;47.358;0.724;2023-07-29T05:02:34;21.0;73.0
26641;DHT22;14269;47.358;0.724;2023-07-29T05:05:06;21.0;72.0
26641;DHT22;14269;47.358;0.724;2023-07-29T05:07:47;21.0;72.0
26641;DHT22;14269;47.358;0.724;2023-07-29T05:10:19;21.0;71.0
26641;DHT22;14269;47.358;0.724;2023-07-29T05:13:00;21.0;72.0
26641;DHT22;14269;47.358;0.724;2023-07-29T05:15:32;21.0;72.0
26641;DHT22;14269;47.358;0.724;2023-07-29T05:18:04;21.0;70.0
26641;DHT22;14269;47.358;0.724;2023-07-29T05:20:35;21.0;72.0
26641;DHT22;14269;47.358;0.724;2023-07-29T05:23:07;21.0;71.0
26641;DHT22;14269;47.358;0.724;2023-07-29T05:25:39;21.0;71.0
26641;DHT22;14269;47.358;0.724;2023-07-29T05:28:11;21.0;71.0
26641;DHT22;14269;47.358;0.724;2023-07-29T05:30:43;21.0;71.0
26641;DHT22;14269;47.358;0.724;2023-07-29T05:33:24;21.0;70.0
26641;DHT22;14269;47.358;0.724;2023-07-29T05:35:56;21.0;71.0
26641;DHT22;14269;47.358;0.724;2023-07-29T05:38:27;21.0;71.0
26641;DHT22;14269;47.358;0.724;2023-07-29T05:40:59;21.0;71.0
26641;DHT22;14269;47.358;0.724;2023-07-29T05:43:43;21.0;72.0
26641;DHT22;14269;47.358;0.724;2023-07-29T05:46:22;22.0;70.0
26641;DHT22;14269;47.358;0.724;2023-07-29T05:48:54;22.0;70.0
26641;DHT22;14269;47.358;0.724;2023-07-29T05:51:25;21.0;70.0
26641;DHT22;14269;47.358;0.724;2023-07-29T05:53:57;21.0;71.0
26641;DHT22;14269;47.358;0.724;2023-07-29T05:56:31;22.0;70.0
26641;DHT22;14269;47.358;0.724;2023-07-29T05:59:10;21.0;71.0
26641;DHT22;14269;47.358;0.724;2023-07-29T06:01:42;22.0;70.0
26641;DHT22;14269;47.358;0.724;2023-07-29T06:04:14;22.0;70.0
26641;DHT22;14269;47.358;0.724;2023-07-29T06:06:45;22.0;70.0
26641;DHT22;14269;47.358;0.724;2023-07-29T06:09:17;22.0;69.0
26641;DHT22;14269;47.358;0.724;2023-07-29T06:11:49;22.0;70.0
26641;DHT22;14269;47.358;0.724;2023-07-29T06:14:20;21.0;71.0
26641;DHT22;14269;47.358;0.724;2023-07-29T06:16:52;22.0;69.0
26641;DHT22;14269;47.358;0.724;2023-07-29T06:19:24;22.0;69.0
26641;DHT22;14269;47.358;0.724;2023-07-29T06:21:56;22.0;71.0
26641;DHT22;14269;47.358;0.724;2023-07-29T06:24:27;21.0;71.0
26641;DHT22;14269;47.358;0.724;2023-07-29T06:26:59;22.0;71.0
26641;DHT22;14269;47.358;0.724;2023-07-29T06:29:30;22.0;71.0
26641;DHT22;14269;47.358;0.724;2023-07-29T06:32:02;22.0;69.0
26641;DHT22;14269;47.358;0.724;2023-07-29T06:34:34;21.0;71.0
26641;DHT22;14269;47.358;0.724;2023-07-29T06:37:06;21.0;71.0
26641;DHT22;14269;47.358;0.724;2023-07-29T06:39:37;22.0;70.0
26641;DHT22;14269;47.358;0.724;2023-07-29T06:42:08;22.0;70.0
26641;DHT22;14269;47.358;0.724;2023-07-29T06:44:40;22.0;71.0
26641;DHT22;14269;47.358;0.724;2023-07-29T06:47:12;22.0;70.0
26641;DHT22;14269;47.358;0.724;2023-07-29T06:49:45;22.0;71.0
26641;DHT22;14269;47.358;0.724;2023-07-29T06:52:25;22.0;71.0
26641;DHT22;14269;47.358;0.724;2023-07-29T06:54:57;22.0;72.0
26641;DHT22;14269;47.358;0.724;2023-07-29T06:57:29;21.0;72.0
26641;DHT22;14269;47.358;0.724;2023-07-29T07:00:01;22.0;72.0
26641;DHT22;14269;47.358;0.724;2023-07-29T07:02:32;22.0;72.0
26641;DHT22;14269;47.358;0.724;2023-07-29T07:05:04;21.0;72.0
26641;DHT22;14269;47.358;0.724;2023-07-29T07:07:35;21.0;72.0
26641;DHT22;14269;47.358;0.724;2023-07-29T07:10:07;22.0;72.0
26641;DHT22;14269;47.358;0.724;2023-07-29T07:12:38;21.0;72.0
26641;DHT22;14269;47.358;0.724;2023-07-29T07:15:10;21.0;72.0
26641;DHT22;14269;47.358;0.724;2023-07-29T07:17:42;21.0;72.0
26641;DHT22;14269;47.358;0.724;2023-07-29T07:20:13;21.0;73.0
26641;DHT22;14269;47.358;0.724;2023-07-29T07:22:45;21.0;74.0
26641;DHT22;14269;47.358;0.724;2023-07-29T07:25:17;21.0;72.0
26641;DHT22;14269;47.358;0.724;2023-07-29T07:27:48;21.0;72.0
26641;DHT22;14269;47.358;0.724;2023-07-29T07:30:20;21.0;73.0
26641;DHT22;14269;47.358;0.724;2023-07-29T07:32:52;22.0;72.0
26641;DHT22;14269;47.358;0.724;2023-07-29T07:35:23;22.0;71.0
26641;DHT22;14269;47.358;0.724;2023-07-29T07:37:55;21.0;72.0
26641;DHT22;14269;47.358;0.724;2023-07-29T07:40:26;21.0;73.0
26641;DHT22;14269;47.358;0.724;2023-07-29T07:42:58;21.0;73.0
26641;DHT22;14269;47.358;0.724;2023-07-29T07:45:32;22.0;71.0
26641;DHT22;14269;47.358;0.724;2023-07-29T07:48:13;22.0;72.0
26641;DHT22;14269;47.358;0.724;2023-07-29T07:50:53;21.0;71.0
26641;DHT22;14269;47.358;0.724;2023-07-29T07:53:25;21.0;72.0
26641;DHT22;14269;47.358;0.724;2023-07-29T07:55:57;21.0;74.0
26641;DHT22;14269;47.358;0.724;2023-07-29T07:58:28;21.0;74.0
26641;DHT22;14269;47.358;0.724;2023-07-29T08:01:02;21.0;75.0
26641;DHT22;14269;47.358;0.724;2023-07-29T08:03:42;21.0;75.0
26641;DHT22;14269;47.358;0.724;2023-07-29T08:06:13;21.0;75.0
26641;DHT22;14269;47.358;0.724;2023-07-29T08:08:45;21.0;75.0
26641;DHT22;14269;47.358;0.724;2023-07-29T08:11:17;21.0;75.0
26641;DHT22;14269;47.358;0.724;2023-07-29T08:13:48;21.0;76.0
26641;DHT22;14269;47.358;0.724;2023-07-29T08:16:20;21.0;76.0
26641;DHT22;14269;47.358;0.724;2023-07-29T08:18:52;21.0;77.0
26641;DHT22;14269;47.358;0.724;2023-07-29T08:21:23;21.0;77.0
26641;DHT22;14269;47.358;0.724;2023-07-29T08:23:55;21.0;77.0
26641;DHT22;14269;47.358;0.724;2023-07-29T08:26:26;21.0;78.0
26641;DHT22;14269;47.358;0.724;2023-07-29T08:28:58;21.0;78.0
26641;DHT22;14269;47.358;0.724;2023-07-29T08:31:33;21.0;78.0
26641;DHT22;14269;47.358;0.724;2023-07-29T08:34:11;21.0;78.0
26641;DHT22;14269;47.358;0.724;2023-07-29T08:36:43;21.0;78.0
26641;DHT22;14269;47.358;0.724;2023-07-29T08:39:15;21.0;78.0
26641;DHT22;14269;47.358;0.724;2023-07-29T08:41:51;21.0;78.0
26641;DHT22;14269;47.358;0.724;2023-07-29T08:44:32;21.0;78.0
26641;DHT22;14269;47.358;0.724;2023-07-29T08:47:11;21.0;78.0
26641;DHT22;14269;47.358;0.724;2023-07-29T08:49:52;21.0;78.0
26641;DHT22;14269;47.358;0.724;2023-07-29T08:52:35;21.0;78.0
26641;DHT22;14269;47.358;0.724;2023-07-29T08:55:15;21.0;78.0
26641;DHT22;14269;47.358;0.724;2023-07-29T08:57:47;21.0;78.0
26641;DHT22;14269;47.358;0.724;2023-07-29T09:00:19;21.0;77.0
26641;DHT22;14269;47.358;0.724;2023-07-29T09:02:50;21.0;77.0
26641;DHT22;14269;47.358;0.724;2023-07-29T09:05:22;21.0;77.0
26641;DHT22;14269;47.358;0.724;2023-07-29T09:07:54;22.0;77.0
26641;DHT22;14269;47.358;0.724;2023-07-29T09:10:36;22.0;77.0
26641;DHT22;14269;47.358;0.724;2023-07-29T09:13:17;22.0;77.0
26641;DHT22;14269;47.358;0.724;2023-07-29T09:15:49;22.0;77.0
26641;DHT22;14269;47.358;0.724;2023-07-29T09:18:20;22.0;77.0
26641;DHT22;14269;47.358;0.724;2023-07-29T09:21:02;21.0;76.0
26641;DHT22;14269;47.358;0.724;2023-07-29T09:23:39;21.0;76.0
26641;DHT22;14269;47.358;0.724;2023-07-29T09:26:22;21.0;77.0
26641;DHT22;14269;47.358;0.724;2023-07-29T09:28:58;21.0;77.0
26641;DHT22;14269;47.358;0.724;2023-07-29T09:31:39;21.0;78.0
26641;DHT22;14269;47.358;0.724;2023-07-29T09:34:15;21.0;78.0
26641;DHT22;14269;47.358;0.724;2023-07-29T09:36:52;21.0;78.0
26641;DHT22;14269;47.358;0.724;2023-07-29T09:39:24;21.0;78.0
26641;DHT22;14269;47.358;0.724;2023-07-29T09:41:56;21.0;79.0
26641;DHT22;14269;47.358;0.724;2023-07-29T09:44:27;21.0;78.0
26641;DHT22;14269;47.358;0.724;2023-07-29T09:46:59;21.0;79.0
26641;DHT22;14269;47.358;0.724;2023-07-29T09:49:35;21.0;79.0
26641;DHT22;14269;47.358;0.724;2023-07-29T09:52:15;21.0;79.0
26641;DHT22;14269;47.358;0.724;2023-07-29T09:54:54;21.0;79.0
26641;DHT22;14269;47.358;0.724;2023-07-29T09:57:26;21.0;78.0
26641;DHT22;14269;47.358;0.724;2023-07-29T09:59:57;21.0;78.0
26641;DHT22;14269;47.358;0.724;2023-07-29T10:02:30;22.0;78.0
26641;DHT22;14269;47.358;0.724;2023-07-29T10:05:11;22.0;78.0
26641;DHT22;14269;47.358;0.724;2023-07-29T10:07:43;21.0;79.0
26641;DHT22;14269;47.358;0.724;2023-07-29T10:10:14;22.0;78.0
26641;DHT22;14269;47.358;0.724;2023-07-29T10:12:47;22.0;78.0
26641;DHT22;14269;47.358;0.724;2023-07-29T10:15:29;22.0;78.0
26641;DHT22;14269;47.358;0.724;2023-07-29T10:18:09;22.0;78.0
26641;DHT22;14269;47.358;0.724;2023-07-29T10:20:42;22.0;78.0
26641;DHT22;14269;47.358;0.724;2023-07-29T10:23:24;22.0;78.0
26641;DHT22;14269;47.358;0.724;2023-07-29T10:26:06;22.0;78.0
26641;DHT22;14269;47.358;0.724;2023-07-29T10:28:47;22.0;78.0
26641;DHT22;14269;47.358;0.724;2023-07-29T10:31:29;22.0;77.0
26641;DHT22;14269;47.358;0.724;2023-07-29T10:34:10;22.0;76.0
26641;DHT22;14269;47.358;0.724;2023-07-29T10:36:52;22.0;76.0
26641;DHT22;14269;47.358;0.724;2023-07-29T10:39:24;22.0;76.0
26641;DHT22;14269;47.358;0.724;2023-07-29T10:42:06;23.0;76.0
26641;DHT22;14269;47.358;0.724;2023-07-29T10:44:49;23.0;75.0
26641;DHT22;14269;47.358;0.724;2023-07-29T10:47:29;23.0;75.0
26641;DHT22;14269;47.358;0.724;2023-07-29T10:50:00;23.0;75.0
26641;DHT22;14269;47.358;0.724;2023-07-29T10:52:40;23.0;75.0
26641;DHT22;14269;47.358;0.724;2023-07-29T10:55:45;23.0;74.0
26641;DHT22;14269;47.358;0.724;2023-07-29T10:58:26;23.0;75.0
26641;DHT22;14269;47.358;0.724;2023-07-29T11:01:13;24.0;75.0
26641;DHT22;14269;47.358;0.724;2023-07-29T11:04:20;25.0;73.0
26641;DHT22;14269;47.358;0.724;2023-07-29T11:07:23;25.0;69.0
26641;DHT22;14269;47.358;0.724;2023-07-29T11:10:04;26.0;68.0
26641;DHT22;14269;47.358;0.724;2023-07-29T11:12:46;26.0;65.0
26641;DHT22;14269;47.358;0.724;2023-07-29T11:15:28;25.0;65.0
26641;DHT22;14269;47.358;0.724;2023-07-29T11:18:09;26.0;64.0
26641;DHT22;14269;47.358;0.724;2023-07-29T11:20:51;25.0;66.0
26641;DHT22;14269;47.358;0.724;2023-07-29T11:23:34;25.0;67.0
26641;DHT22;14269;47.358;0.724;2023-07-29T11:26:14;25.0;67.0
26641;DHT22;14269;47.358;0.724;2023-07-29T11:28:46;25.0;67.0
26641;DHT22;14269;47.358;0.724;2023-07-29T11:31:20;26.0;66.0
26641;DHT22;14269;47.358;0.724;2023-07-29T11:34:00;26.0;62.0
26641;DHT22;14269;47.358;0.724;2023-07-29T11:36:45;26.0;60.0
26641;DHT22;14269;47.358;0.724;2023-07-29T11:39:22;28.0;59.0
26641;DHT22;14269;47.358;0.724;2023-07-29T11:41:54;28.0;58.0
26641;DHT22;14269;47.358;0.724;2023-07-29T11:44:25;28.0;57.0
26641;DHT22;14269;47.358;0.724;2023-07-29T11:47:07;27.0;59.0
26641;DHT22;14269;47.358;0.724;2023-07-29T11:49:40;28.0;57.0
26641;DHT22;14269;47.358;0.724;2023-07-29T11:52:21;28.0;55.0
26641;DHT22;14269;47.358;0.724;2023-07-29T11:54:52;27.0;57.0
26641;DHT22;14269;47.358;0.724;2023-07-29T11:57:24;27.0;57.0
26641;DHT22;14269;47.358;0.724;2023-07-29T11:59:56;28.0;56.0
26641;DHT22;14269;47.358;0.724;2023-07-29T12:02:27;28.0;55.0
26641;DHT22;14269;47.358;0.724;2023-07-29T12:04:59;29.0;52.0
26641;DHT22;14269;47.358;0.724;2023-07-29T12:07:31;29.0;52.0
26641;DHT22;14269;47.358;0.724;2023-07-29T12:10:03;29.0;52.0
26641;DHT22;14269;47.358;0.724;2023-07-29T12:12:45;29.0;52.0
26641;DHT22;14269;47.358;0.724;2023-07-29T12:15:27;29.0;52.0
26641;DHT22;14269;47.358;0.724;2023-07-29T12:18:08;29.0;50.0
26641;DHT22;14269;47.358;0.724;2023-07-29T12:20:39;29.0;52.0
26641;DHT22;14269;47.358;0.724;2023-07-29T12:23:11;28.0;52.0
26641;DHT22;14269;47.358;0.724;2023-07-29T12:25:43;28.0;53.0
26641;DHT22;14269;47.358;0.724;2023-07-29T12:28:14;28.0;51.0
26641;DHT22;14269;47.358;0.724;2023-07-29T12:30:46;28.0;52.0
26641;DHT22;14269;47.358;0.724;2023-07-29T12:33:30;29.0;53.0
26641;DHT22;14269;47.358;0.724;2023-07-29T12:36:10;29.0;50.0
26641;DHT22;14269;47.358;0.724;2023-07-29T12:38:51;29.0;48.0
26641;DHT22;14269;47.358;0.724;2023-07-29T12:41:23;28.0;50.0
26641;DHT22;14269;47.358;0.724;2023-07-29T12:43:54;29.0;50.0
26641;DHT22;14269;47.358;0.724;2023-07-29T12:46:29;28.0;50.0
26641;DHT22;14269;47.358;0.724;2023-07-29T12:49:08;28.0;51.0
26641;DHT22;14269;47.358;0.724;2023-07-29T12:51:39;28.0;51.0
26641;DHT22;14269;47.358;0.724;2023-07-29T12:54:11;28.0;50.0
26641;DHT22;14269;47.358;0.724;2023-07-29T12:56:43;28.0;51.0
26641;DHT22;14269;47.358;0.724;2023-07-29T12:59:14;28.0;50.0
26641;DHT22;14269;47.358;0.724;2023-07-29T13:01:46;28.0;51.0
26641;DHT22;14269;47.358;0.724;2023-07-29T13:04:17;28.0;51.0
26641;DHT22;14269;47.358;0.724;2023-07-29T13:06:49;28.0;50.0
26641;DHT22;14269;47.358;0.724;2023-07-29T13:09:21;27.0;51.0
26641;DHT22;14269;47.358;0.724;2023-07-29T13:11:52;27.0;52.0
26641;DHT22;14269;47.358;0.724;2023-07-29T13:14:26;27.0;53.0
26641;DHT22;14269;47.358;0.724;2023-07-29T13:17:06;28.0;52.0
26641;DHT22;14269;47.358;0.724;2023-07-29T13:19:37;28.0;50.0
26641;DHT22;14269;47.358;0.724;2023-07-29T13:22:09;28.0;50.0
26641;DHT22;14269;47.358;0.724;2023-07-29T13:24:41;28.0;49.0
26641;DHT22;14269;47.358;0.724;2023-07-29T13:27:12;28.0;49.0
26641;DHT22;14269;47.358;0.724;2023-07-29T13:29:44;29.0;49.0
26641;DHT22;14269;47.358;0.724;2023-07-29T13:32:26;28.0;50.0
26641;DHT22;14269;47.358;0.724;2023-07-29T13:34:57;28.0;49.0
26641;DHT22;14269;47.358;0.724;2023-07-29T13:37:29;29.0;49.0
26641;DHT22;14269;47.358;0.724;2023-07-29T13:40:01;28.0;50.0
26641;DHT22;14269;47.358;0.724;2023-07-29T13:42:32;28.0;50.0
26641;DHT22;14269;47.358;0.724;2023-07-29T13:45:05;28.0;51.0
26641;DHT22;14269;47.358;0.724;2023-07-29T13:47:36;28.0;50.0
26641;DHT22;14269;47.358;0.724;2023-07-29T13:50:08;29.0;49.0
26641;DHT22;14269;47.358;0.724;2023-07-29T13:52:39;29.0;48.0
26641;DHT22;14269;47.358;0.724;2023-07-29T13:55:11;29.0;46.0
26641;DHT22;14269;47.358;0.724;2023-07-29T13:57:42;29.0;46.0
26641;DHT22;14269;47.358;0.724;2023-07-29T14:00:14;29.0;46.0
26641;DHT22;14269;47.358;0.724;2023-07-29T14:02:46;29.0;46.0
26641;DHT22;14269;47.358;0.724;2023-07-29T14:05:17;30.0;46.0
26641;DHT22;14269;47.358;0.724;2023-07-29T14:07:49;29.0;47.0
26641;DHT22;14269;47.358;0.724;2023-07-29T14:10:20;30.0;45.0
26641;DHT22;14269;47.358;0.724;2023-07-29T14:12:52;30.0;44.0
26641;DHT22;14269;47.358;0.724;2023-07-29T14:15:24;29.0;46.0
26641;DHT22;14269;47.358;0.724;2023-07-29T14:17:55;28.0;47.0
26641;DHT22;14269;47.358;0.724;2023-07-29T14:20:27;29.0;47.0
26641;DHT22;14269;47.358;0.724;2023-07-29T14:22:59;29.0;45.0
26641;DHT22;14269;47.358;0.724;2023-07-29T14:25:30;29.0;44.0
26641;DHT22;14269;47.358;0.724;2023-07-29T14:28:02;29.0;45.0
26641;DHT22;14269;47.358;0.724;2023-07-29T14:30:34;29.0;44.0
26641;DHT22;14269;47.358;0.724;2023-07-29T14:33:15;29.0;45.0
26641;DHT22;14269;47.358;0.724;2023-07-29T14:35:47;29.0;45.0
26641;DHT22;14269;47.358;0.724;2023-07-29T14:38:19;29.0;46.0
26641;DHT22;14269;47.358;0.724;2023-07-29T14:40:52;28.0;46.0
26641;DHT22;14269;47.358;0.724;2023-07-29T14:43:34;28.0;46.0
26641;DHT22;14269;47.358;0.724;2023-07-29T14:46:14;29.0;47.0
26641;DHT22;14269;47.358;0.724;2023-07-29T14:48:47;29.0;46.0
26641;DHT22;14269;47.358;0.724;2023-07-29T14:51:27;29.0;47.0
26641;DHT22;14269;47.358;0.724;2023-07-29T14:53:59;29.0;47.0
26641;DHT22;14269;47.358;0.724;2023-07-29T14:56:31;29.0;47.0
26641;DHT22;14269;47.358;0.724;2023-07-29T14:59:02;29.0;46.0
26641;DHT22;14269;47.358;0.724;2023-07-29T15:01:34;29.0;47.0
26641;DHT22;14269;47.358;0.724;2023-07-29T15:04:06;29.0;46.0
26641;DHT22;14269;47.358;0.724;2023-07-29T15:06:38;29.0;47.0
26641;DHT22;14269;47.358;0.724;2023-07-29T15:09:19;29.0;46.0
26641;DHT22;14269;47.358;0.724;2023-07-29T15:11:51;28.0;47.0
26641;DHT22;14269;47.358;0.724;2023-07-29T15:14:22;28.0;48.0
26641;DHT22;14269;47.358;0.724;2023-07-29T15:16:54;28.0;48.0
26641;DHT22;14269;47.358;0.724;2023-07-29T15:19:25;28.0;48.0
26641;DHT22;14269;47.358;0.724;2023-07-29T15:21:57;28.0;47.0
26641;DHT22;14269;47.358;0.724;2023-07-29T15:24:29;28.0;47.0
26641;DHT22;14269;47.358;0.724;2023-07-29T15:27:00;28.0;48.0
26641;DHT22;14269;47.358;0.724;2023-07-29T15:29:33;28.0;48.0
26641;DHT22;14269;47.358;0.724;2023-07-29T15:32:05;28.0;48.0
26641;DHT22;14269;47.358;0.724;2023-07-29T15:34:46;28.0;48.0
26641;DHT22;14269;47.358;0.724;2023-07-29T15:37:17;28.0;48.0
26641;DHT22;14269;47.358;0.724;2023-07-29T15:39:49;27.0;48.0
26641;DHT22;14269;47.358;0.724;2023-07-29T15:42:21;28.0;48.0
26641;DHT22;14269;47.358;0.724;2023-07-29T15:44:52;27.0;48.0
26641;DHT22;14269;47.358;0.724;2023-07-29T15:47:24;27.0;48.0
26641;DHT22;14269;47.358;0.724;2023-07-29T15:49:55;27.0;49.0
26641;DHT22;14269;47.358;0.724;2023-07-29T15:52:29;27.0;49.0
26641;DHT22;14269;47.358;0.724;2023-07-29T15:55:09;27.0;49.0
26641;DHT22;14269;47.358;0.724;2023-07-29T15:57:41;27.0;51.0
26641;DHT22;14269;47.358;0.724;2023-07-29T16:00:13;27.0;52.0
26641;DHT22;14269;47.358;0.724;2023-07-29T16:02:44;27.0;54.0
26641;DHT22;14269;47.358;0.724;2023-07-29T16:05:16;27.0;53.0
26641;DHT22;14269;47.358;0.724;2023-07-29T16:07:47;27.0;53.0
26641;DHT22;14269;47.358;0.724;2023-07-29T16:10:19;27.0;53.0
26641;DHT22;14269;47.358;0.724;2023-07-29T16:12:50;27.0;53.0
26641;DHT22;14269;47.358;0.724;2023-07-29T16:15:22;27.0;52.0
26641;DHT22;14269;47.358;0.724;2023-07-29T16:17:54;27.0;51.0
26641;DHT22;14269;47.358;0.724;2023-07-29T16:20:26;28.0;52.0
26641;DHT22;14269;47.358;0.724;2023-07-29T16:22:57;27.0;51.0
26641;DHT22;14269;47.358;0.724;2023-07-29T16:25:29;27.0;52.0
26641;DHT22;14269;47.358;0.724;2023-07-29T16:28:00;27.0;52.0
26641;DHT22;14269;47.358;0.724;2023-07-29T16:30:33;27.0;52.0
26641;DHT22;14269;47.358;0.724;2023-07-29T16:33:04;27.0;52.0
26641;DHT22;14269;47.358;0.724;2023-07-29T16:35:35;27.0;52.0
26641;DHT22;14269;47.358;0.724;2023-07-29T16:38:07;27.0;57.0
26641;DHT22;14269;47.358;0.724;2023-07-29T16:40:38;26.0;59.0
26641;DHT22;14269;47.358;0.724;2023-07-29T16:43:10;26.0;61.0
26641;DHT22;14269;47.358;0.724;2023-07-29T16:45:42;26.0;60.0
26641;DHT22;14269;47.358;0.724;2023-07-29T16:48:13;26.0;59.0